Time,TemperatureF,DewpointF,PressureIn,WindDirection,WindDirectionDegrees,WindSpeedMPH,WindSpeedGustMPH,Humidity,HourlyPrecipIn,Conditions,Clouds,dailyrainin,SoftwareType,DateUTC
2013-04-12 00:01:00,40.5,31.5,30.13,NNE,22,1.7,-999.0,70,-99.99,,,0.00,Acu-Link.com,2013-04-12 04:01:00,
2013-04-12 00:16:00,40.5,31.1,30.14,East,90,2.7,-999.0,69,-99.99,,,0.00,Acu-Link.com,2013-04-12 04:16:00,
2013-04-12 00:31:00,40.3,31.0,30.15,NNW,337,1.7,-999.0,69,-99.99,,,0.00,Acu-Link.com,2013-04-12 04:31:00,
2013-04-12 00:46:00,40.3,30.6,30.14,ENE,67,0.0,-999.0,68,-99.99,,,0.00,Acu-Link.com,2013-04-12 04:46:00,
2013-04-12 01:01:00,40.3,31.0,30.15,NNW,337,1.7,-999.0,69,-99.99,,,0.00,Acu-Link.com,2013-04-12 05:01:00,
2013-04-12 01:17:00,40.5,31.1,30.14,ENE,67,1.1,-999.0,69,-99.99,,,0.00,Acu-Link.com,2013-04-12 05:17:00,
2013-04-12 01:32:00,40.5,31.1,30.14,NNE,22,1.1,-999.0,69,-99.99,,,0.00,Acu-Link.com,2013-04-12 05:32:00,
2013-04-12 01:47:00,40.5,31.8,30.15,North,0,0.0,-999.0,71,-99.99,,,0.00,Acu-Link.com,2013-04-12 05:47:00,
2013-04-12 02:02:00,40.1,32.2,30.14,NNE,22,0.0,-999.0,73,-99.99,,,0.00,Acu-Link.com,2013-04-12 06:02:00,
2013-04-12 02:17:00,40.1,31.5,30.13,ENE,67,2.2,-999.0,71,-99.99,,,0.00,Acu-Link.com,2013-04-12 06:17:00,
2013-04-12 02:33:00,40.3,31.3,30.14,NNE,22,2.7,-999.0,70,-99.99,,,0.00,Acu-Link.com,2013-04-12 06:33:00,
2013-04-12 02:48:00,40.3,30.2,30.14,ESE,112,6.3,-999.0,67,-99.99,,,0.00,Acu-Link.com,2013-04-12 06:48:00,
2013-04-12 03:03:00,40.5,28.5,30.14,East,90,5.8,-999.0,62,-99.99,,,0.00,Acu-Link.com,2013-04-12 07:03:00,
2013-04-12 03:18:00,40.3,29.1,30.14,East,90,6.8,-999.0,64,-99.99,,,0.00,Acu-Link.com,2013-04-12 07:18:00,
2013-04-12 03:34:00,39.7,31.4,30.14,NE,45,5.8,-999.0,72,-99.99,,,0.00,Acu-Link.com,2013-04-12 07:34:00,
2013-04-12 03:49:00,39.0,32.7,30.15,NE,45,6.3,-999.0,78,-99.99,,,0.00,Acu-Link.com,2013-04-12 07:49:00,
2013-04-12 04:05:00,38.5,32.9,30.15,ENE,67,10.4,-999.0,80,-99.99,,,0.00,Acu-Link.com,2013-04-12 08:05:00,
2013-04-12 04:36:00,37.8,32.2,30.15,ESE,112,6.8,-999.0,80,-99.99,,,0.00,Acu-Link.com,2013-04-12 08:36:00,
2013-04-12 04:51:00,37.0,32.6,30.16,ESE,112,8.3,-999.0,84,-99.99,,,0.01,Acu-Link.com,2013-04-12 08:51:00,
2013-04-12 05:07:00,36.1,33.2,30.15,North,0,6.3,-999.0,89,-99.99,,,0.01,Acu-Link.com,2013-04-12 09:07:00,
2013-04-12 05:22:00,36.1,32.3,30.15,NNE,22,13.0,-999.0,86,-99.99,,,0.02,Acu-Link.com,2013-04-12 09:22:00,
2013-04-12 05:37:00,35.1,31.6,30.15,NNE,22,7.3,-999.0,87,-99.99,,,0.03,Acu-Link.com,2013-04-12 09:37:00,
2013-04-12 05:52:00,35.2,30.9,30.15,ESE,112,8.3,-999.0,84,-99.99,,,0.03,Acu-Link.com,2013-04-12 09:52:00,
2013-04-12 06:07:00,35.4,30.2,30.16,ESE,112,7.8,-999.0,81,-99.99,,,0.03,Acu-Link.com,2013-04-12 10:07:00,
2013-04-12 06:22:00,35.8,29.0,30.15,NNW,337,4.7,-999.0,76,-99.99,,,0.03,Acu-Link.com,2013-04-12 10:22:00,
2013-04-12 06:37:00,35.8,29.0,30.16,SSE,157,3.2,-999.0,76,-99.99,,,0.03,Acu-Link.com,2013-04-12 10:37:00,
2013-04-12 06:53:00,35.6,29.7,30.17,NE,45,4.2,-999.0,79,-99.99,,,0.03,Acu-Link.com,2013-04-12 10:53:00,
2013-04-12 07:08:00,35.4,29.9,30.16,NE,45,7.3,-999.0,80,-99.99,,,0.03,Acu-Link.com,2013-04-12 11:08:00,
2013-04-12 07:23:00,35.8,29.6,30.16,East,90,9.9,-999.0,78,-99.99,,,0.03,Acu-Link.com,2013-04-12 11:23:00,
2013-04-12 07:38:00,36.1,29.9,30.15,NE,45,5.3,-999.0,78,-99.99,,,0.03,Acu-Link.com,2013-04-12 11:38:00,
2013-04-12 07:53:00,36.3,29.8,30.15,East,90,10.4,-999.0,77,-99.99,,,0.03,Acu-Link.com,2013-04-12 11:53:00,
2013-04-12 08:09:00,36.5,29.3,30.15,ESE,112,8.9,-999.0,75,-99.99,,,0.03,Acu-Link.com,2013-04-12 12:09:00,
2013-04-12 08:24:00,36.7,29.5,30.15,ESE,112,9.9,-999.0,75,-99.99,,,0.03,Acu-Link.com,2013-04-12 12:24:00,
2013-04-12 08:39:00,37.0,29.2,30.13,ENE,67,12.5,-999.0,73,-99.99,,,0.03,Acu-Link.com,2013-04-12 12:39:00,
2013-04-12 08:54:00,37.2,30.0,30.13,SSE,157,9.4,-999.0,75,-99.99,,,0.03,Acu-Link.com,2013-04-12 12:54:00,
2013-04-12 09:09:00,37.6,30.1,30.10,ENE,67,7.3,-999.0,74,-99.99,,,0.03,Acu-Link.com,2013-04-12 13:09:00,
2013-04-12 09:25:00,37.6,29.7,30.12,ENE,67,7.8,-999.0,73,-99.99,,,0.03,Acu-Link.com,2013-04-12 13:25:00,
2013-04-12 09:40:00,37.4,29.2,30.12,NE,45,11.4,-999.0,72,-99.99,,,0.03,Acu-Link.com,2013-04-12 13:40:00,
2013-04-12 09:55:00,37.4,29.6,30.10,ESE,112,8.3,-999.0,73,-99.99,,,0.03,Acu-Link.com,2013-04-12 13:55:00,
2013-04-12 10:10:00,37.4,29.2,30.08,ESE,112,9.4,-999.0,72,-99.99,,,0.03,Acu-Link.com,2013-04-12 14:10:00,
2013-04-12 10:26:00,37.2,28.7,30.08,ESE,112,6.3,-999.0,71,-99.99,,,0.03,Acu-Link.com,2013-04-12 14:26:00,
2013-04-12 10:41:00,36.5,30.0,30.08,East,90,6.3,-999.0,77,-99.99,,,0.03,Acu-Link.com,2013-04-12 14:41:00,
2013-04-12 11:11:00,35.2,32.0,30.05,ESE,112,6.8,-999.0,88,-99.99,,,0.06,Acu-Link.com,2013-04-12 15:11:00,
2013-04-12 11:26:00,35.2,32.6,30.06,NE,45,3.7,-999.0,90,-99.99,,,0.07,Acu-Link.com,2013-04-12 15:26:00,
2013-04-12 11:42:00,35.2,33.1,30.05,East,90,4.2,-999.0,92,-99.99,,,0.09,Acu-Link.com,2013-04-12 15:42:00,
2013-04-12 11:57:00,35.1,33.6,30.05,ENE,67,7.3,-999.0,94,-99.99,,,0.12,Acu-Link.com,2013-04-12 15:57:00,
2013-04-12 12:12:00,35.2,33.6,30.05,SE,135,3.2,-999.0,94,-99.99,,,0.15,Acu-Link.com,2013-04-12 16:12:00,
2013-04-12 12:27:00,35.1,33.3,30.03,East,90,4.7,-999.0,93,-99.99,,,0.17,Acu-Link.com,2013-04-12 16:27:00,
2013-04-12 12:42:00,34.9,33.6,30.01,East,90,5.8,-999.0,95,-99.99,,,0.20,Acu-Link.com,2013-04-12 16:42:00,
2013-04-12 12:58:00,34.7,33.7,30.04,East,90,6.8,-999.0,96,-99.99,,,0.25,Acu-Link.com,2013-04-12 16:58:00,
2013-04-12 13:13:00,34.9,34.1,30.02,ESE,112,6.3,-999.0,97,-99.99,,,0.29,Acu-Link.com,2013-04-12 17:13:00,
2013-04-12 13:28:00,35.2,34.4,30.02,East,90,7.8,-999.0,97,-99.99,,,0.34,Acu-Link.com,2013-04-12 17:28:00,
2013-04-12 13:43:00,35.6,34.8,30.00,ESE,112,6.8,-999.0,97,-99.99,,,0.35,Acu-Link.com,2013-04-12 17:43:00,
2013-04-12 14:14:00,35.8,35.0,29.99,SE,135,2.2,-999.0,97,-99.99,,,0.37,Acu-Link.com,2013-04-12 18:14:00,
2013-04-12 14:29:00,35.4,34.6,29.98,ESE,112,5.8,-999.0,97,-99.99,,,0.38,Acu-Link.com,2013-04-12 18:29:00,
2013-04-12 15:30:00,35.8,35.0,29.94,ESE,112,4.2,-999.0,97,-99.99,,,0.44,Acu-Link.com,2013-04-12 19:30:00,
2013-04-12 15:45:00,36.1,35.1,29.95,NNE,22,4.7,-999.0,96,-99.99,,,0.44,Acu-Link.com,2013-04-12 19:45:00,
2013-04-12 16:00:00,36.0,35.0,29.93,NNW,337,6.8,-999.0,96,-99.99,,,0.44,Acu-Link.com,2013-04-12 20:00:00,
2013-04-12 16:15:00,36.0,35.0,29.92,ENE,67,8.9,-999.0,96,-99.99,,,0.44,Acu-Link.com,2013-04-12 20:15:00,
2013-04-12 16:31:00,36.0,35.0,29.91,ESE,112,8.3,-999.0,96,-99.99,,,0.44,Acu-Link.com,2013-04-12 20:31:00,
2013-04-12 17:01:00,35.6,35.3,29.91,SE,135,4.2,-999.0,99,-99.99,,,0.44,Acu-Link.com,2013-04-12 21:01:00,
2013-04-12 17:16:00,35.6,35.3,29.90,East,90,6.3,-999.0,99,-99.99,,,0.44,Acu-Link.com,2013-04-12 21:16:00,
2013-04-12 17:32:00,35.6,35.3,29.90,NE,45,7.3,-999.0,99,-99.99,,,0.45,Acu-Link.com,2013-04-12 21:32:00,
2013-04-12 17:47:00,35.6,35.3,29.89,East,90,5.8,-999.0,99,-99.99,,,0.45,Acu-Link.com,2013-04-12 21:47:00,
2013-04-12 18:02:00,35.6,35.3,29.88,WNW,292,3.7,-999.0,99,-99.99,,,0.45,Acu-Link.com,2013-04-12 22:02:00,
2013-04-12 18:17:00,35.8,35.5,29.87,NNE,22,3.2,-999.0,99,-99.99,,,0.45,Acu-Link.com,2013-04-12 22:17:00,
2013-04-12 18:32:00,36.0,35.7,29.87,ESE,112,4.2,-999.0,99,-99.99,,,0.45,Acu-Link.com,2013-04-12 22:32:00,
2013-04-12 18:48:00,36.1,35.8,29.87,North,0,4.2,-999.0,99,-99.99,,,0.45,Acu-Link.com,2013-04-12 22:48:00,
2013-04-12 19:03:00,36.0,35.7,29.85,East,90,4.7,-999.0,99,-99.99,,,0.45,Acu-Link.com,2013-04-12 23:03:00,
2013-04-12 19:18:00,36.0,35.7,29.85,East,90,5.8,-999.0,99,-99.99,,,0.45,Acu-Link.com,2013-04-12 23:18:00,
2013-04-12 19:33:00,36.1,35.8,29.84,ENE,67,7.8,-999.0,99,-99.99,,,0.45,Acu-Link.com,2013-04-12 23:33:00,
2013-04-12 19:48:00,36.3,36.0,29.84,South,180,3.7,-999.0,99,-99.99,,,0.45,Acu-Link.com,2013-04-12 23:48:00,
2013-04-12 20:04:00,36.3,36.0,29.84,ENE,67,4.7,-999.0,99,-99.99,,,0.45,Acu-Link.com,2013-04-13 00:04:00,
2013-04-12 20:19:00,36.5,36.2,29.84,SE,135,3.2,-999.0,99,-99.99,,,0.45,Acu-Link.com,2013-04-13 00:19:00,
2013-04-12 20:34:00,36.5,36.2,29.84,NNE,22,5.8,-999.0,99,-99.99,,,0.45,Acu-Link.com,2013-04-13 00:34:00,
2013-04-12 20:49:00,36.3,36.0,29.84,East,90,3.7,-999.0,99,-99.99,,,0.46,Acu-Link.com,2013-04-13 00:49:00,
2013-04-12 21:04:00,36.3,36.0,29.84,NNE,22,7.3,-999.0,99,-99.99,,,0.46,Acu-Link.com,2013-04-13 01:04:00,
2013-04-12 21:20:00,36.3,36.0,29.83,ENE,67,3.7,-999.0,99,-99.99,,,0.46,Acu-Link.com,2013-04-13 01:20:00,
2013-04-12 21:35:00,36.3,36.0,29.83,NE,45,4.7,-999.0,99,-99.99,,,0.46,Acu-Link.com,2013-04-13 01:35:00,
2013-04-12 21:50:00,36.3,36.0,29.81,NNE,22,5.8,-999.0,99,-99.99,,,0.47,Acu-Link.com,2013-04-13 01:50:00,
2013-04-12 22:05:00,36.3,36.0,29.82,East,90,3.2,-999.0,99,-99.99,,,0.47,Acu-Link.com,2013-04-13 02:05:00,
2013-04-12 22:20:00,36.3,36.0,29.81,ESE,112,2.2,-999.0,99,-99.99,,,0.47,Acu-Link.com,2013-04-13 02:20:00,
2013-04-12 22:36:00,36.3,36.0,29.81,NNE,22,2.7,-999.0,99,-99.99,,,0.47,Acu-Link.com,2013-04-13 02:36:00,
2013-04-12 23:06:00,36.7,36.4,29.79,North,0,6.3,-999.0,99,-99.99,,,0.47,Acu-Link.com,2013-04-13 03:06:00,
2013-04-12 23:37:00,36.7,36.4,29.79,NNW,337,4.7,-999.0,99,-99.99,,,0.47,Acu-Link.com,2013-04-13 03:37:00,
2013-04-12 23:52:00,36.7,36.4,29.79,NNE,22,5.8,-999.0,99,-99.99,,,0.47,Acu-Link.com,2013-04-13 03:52:00,